sensor_id;sensor_type;location;lat;lon;timestamp;P1;durP1;ratioP1;P2;durP2;ratioP2
1378;SDS011;683;48.738;9.226;2023-09-19T08:57:46;1.57;;;1.10;;
1378;SDS011;683;48.738;9.226;2023-09-19T09:00:18;1.93;;;1.60;;
1378;SDS011;683;48.738;9.226;2023-09-19T09:02:48;2.00;;;1.50;;
1378;SDS011;683;48.738;9.226;2023-09-19T09:05:16;1.60;;;1.37;;
1378;SDS011;683;48.738;9.226;2023-09-19T09:07:48;2.87;;;1.33;;
1378;SDS011;683;48.738;9.226;2023-09-19T09:10:18;1.17;;;1.07;;
1378;SDS011;683;48.738;9.226;2023-09-19T09:12:48;1.40;;;1.30;;
1378;SDS011;683;48.738;9.226;2023-09-19T09:20:16;2.13;;;1.90;;
1378;SDS011;683;48.738;9.226;2023-09-19T09:22:50;1.53;;;1.43;;
1378;SDS011;683;48.738;9.226;2023-09-19T09:25:21;1.37;;;1.27;;
1378;SDS011;683;48.738;9.226;2023-09-19T09:27:59;3.00;;;1.30;;
1378;SDS011;683;48.738;9.226;2023-09-19T09:30:34;1.70;;;1.47;;
1378;SDS011;683;48.738;9.226;2023-09-19T09:33:09;1.90;;;1.33;;
1378;SDS011;683;48.738;9.226;2023-09-19T09:35:37;1.77;;;1.40;;
1378;SDS011;683;48.738;9.226;2023-09-19T09:38:17;2.77;;;1.13;;
1378;SDS011;683;48.738;9.226;2023-09-19T09:40:48;1.33;;;1.23;;
1378;SDS011;683;48.738;9.226;2023-09-19T09:43:24;3.00;;;1.30;;
1378;SDS011;683;48.738;9.226;2023-09-19T09:46:07;1.53;;;1.30;;
1378;SDS011;683;48.738;9.226;2023-09-19T10:32:49;1.47;;;1.20;;
1378;SDS011;683;48.738;9.226;2023-09-19T10:35:24;1.50;;;1.30;;
1378;SDS011;683;48.738;9.226;2023-09-19T10:37:54;2.30;;;1.40;;
1378;SDS011;683;48.738;9.226;2023-09-19T10:40:23;1.23;;;1.10;;
1378;SDS011;683;48.738;9.226;2023-09-19T10:43:01;1.93;;;1.20;;
1378;SDS011;683;48.738;9.226;2023-09-19T10:45:30;4.00;;;1.10;;
1378;SDS011;683;48.738;9.226;2023-09-19T10:47:59;1.40;;;1.13;;
1378;SDS011;683;48.738;9.226;2023-09-19T10:50:28;3.43;;;1.27;;
1378;SDS011;683;48.738;9.226;2023-09-19T10:53:00;2.43;;;1.33;;
1378;SDS011;683;48.738;9.226;2023-09-19T10:55:32;2.07;;;1.03;;
1378;SDS011;683;48.738;9.226;2023-09-19T10:58:03;1.70;;;1.37;;
1378;SDS011;683;48.738;9.226;2023-09-19T11:00:52;3.53;;;1.23;;
1378;SDS011;683;48.738;9.226;2023-09-19T11:03:21;1.30;;;0.90;;
1378;SDS011;683;48.738;9.226;2023-09-19T11:06:05;1.40;;;1.30;;
1378;SDS011;683;48.738;9.226;2023-09-19T11:11:48;2.03;;;1.20;;
1378;SDS011;683;48.738;9.226;2023-09-19T11:28:29;3.50;;;1.40;;
1378;SDS011;683;48.738;9.226;2023-09-19T11:34:39;2.27;;;1.40;;
1378;SDS011;683;48.738;9.226;2023-09-19T11:40:33;2.80;;;1.40;;
1378;SDS011;683;48.738;9.226;2023-09-19T13:03:40;2.30;;;1.10;;
1378;SDS011;683;48.738;9.226;2023-09-19T13:06:07;1.93;;;1.00;;
1378;SDS011;683;48.738;9.226;2023-09-19T13:08:36;1.37;;;1.27;;
1378;SDS011;683;48.738;9.226;2023-09-19T13:11:08;2.20;;;1.50;;
1378;SDS011;683;48.738;9.226;2023-09-19T13:13:38;1.47;;;1.37;;
1378;SDS011;683;48.738;9.226;2023-09-19T13:16:07;1.33;;;1.20;;
1378;SDS011;683;48.738;9.226;2023-09-19T13:18:44;1.30;;;1.00;;
1378;SDS011;683;48.738;9.226;2023-09-19T13:21:16;1.60;;;1.50;;
1378;SDS011;683;48.738;9.226;2023-09-19T13:23:52;1.60;;;1.33;;
1378;SDS011;683;48.738;9.226;2023-09-19T13:26:24;1.10;;;1.00;;
1378;SDS011;683;48.738;9.226;2023-09-19T13:28:53;1.50;;;1.03;;
1378;SDS011;683;48.738;9.226;2023-09-19T13:31:20;1.57;;;1.40;;
1378;SDS011;683;48.738;9.226;2023-09-19T13:33:49;1.67;;;1.40;;
1378;SDS011;683;48.738;9.226;2023-09-19T13:36:17;2.00;;;1.67;;
1378;SDS011;683;48.738;9.226;2023-09-19T13:38:44;2.00;;;1.37;;
1378;SDS011;683;48.738;9.226;2023-09-19T13:41:16;1.53;;;1.40;;
1378;SDS011;683;48.738;9.226;2023-09-19T13:43:43;2.03;;;1.00;;
1378;SDS011;683;48.738;9.226;2023-09-19T13:46:13;2.00;;;1.30;;
1378;SDS011;683;48.738;9.226;2023-09-19T13:48:41;1.30;;;1.20;;
1378;SDS011;683;48.738;9.226;2023-09-19T13:51:09;1.60;;;1.13;;
1378;SDS011;683;48.738;9.226;2023-09-19T13:53:36;4.83;;;1.27;;
1378;SDS011;683;48.738;9.226;2023-09-19T13:56:04;1.20;;;1.10;;
1378;SDS011;683;48.738;9.226;2023-09-19T13:58:33;2.27;;;1.17;;
1378;SDS011;683;48.738;9.226;2023-09-19T14:01:01;1.10;;;1.00;;
1378;SDS011;683;48.738;9.226;2023-09-19T14:03:28;2.20;;;1.30;;
1378;SDS011;683;48.738;9.226;2023-09-19T14:05:57;2.43;;;1.20;;
1378;SDS011;683;48.738;9.226;2023-09-19T14:08:24;2.70;;;1.20;;
1378;SDS011;683;48.738;9.226;2023-09-19T14:10:51;1.10;;;1.00;;
1378;SDS011;683;48.738;9.226;2023-09-19T14:13:19;1.87;;;1.47;;
1378;SDS011;683;48.738;9.226;2023-09-19T14:15:48;1.27;;;1.17;;
1378;SDS011;683;48.738;9.226;2023-09-19T14:18:15;1.43;;;1.20;;
1378;SDS011;683;48.738;9.226;2023-09-19T14:20:44;1.17;;;1.07;;
1378;SDS011;683;48.738;9.226;2023-09-19T14:23:11;1.47;;;1.30;;
1378;SDS011;683;48.738;9.226;2023-09-19T14:25:38;1.57;;;1.33;;
1378;SDS011;683;48.738;9.226;2023-09-19T14:28:08;1.20;;;1.10;;
1378;SDS011;683;48.738;9.226;2023-09-19T14:30:40;4.80;;;1.40;;
1378;SDS011;683;48.738;9.226;2023-09-19T14:33:09;2.93;;;1.13;;
1378;SDS011;683;48.738;9.226;2023-09-19T14:35:36;2.87;;;1.60;;
1378;SDS011;683;48.738;9.226;2023-09-19T14:38:04;3.47;;;1.90;;
1378;SDS011;683;48.738;9.226;2023-09-19T14:40:31;1.80;;;1.37;;
1378;SDS011;683;48.738;9.226;2023-09-19T14:42:59;1.63;;;1.30;;
1378;SDS011;683;48.738;9.226;2023-09-19T14:45:27;2.00;;;1.53;;
1378;SDS011;683;48.738;9.226;2023-09-19T14:47:56;1.37;;;1.27;;
1378;SDS011;683;48.738;9.226;2023-09-19T14:50:25;1.53;;;1.30;;
1378;SDS011;683;48.738;9.226;2023-09-19T14:52:52;1.23;;;1.13;;
1378;SDS011;683;48.738;9.226;2023-09-19T14:55:20;2.47;;;1.40;;
1378;SDS011;683;48.738;9.226;2023-09-19T14:57:49;3.27;;;1.73;;
1378;SDS011;683;48.738;9.226;2023-09-19T15:00:18;2.63;;;1.50;;
1378;SDS011;683;48.738;9.226;2023-09-19T15:02:49;1.13;;;1.03;;
1378;SDS011;683;48.738;9.226;2023-09-19T15:05:16;1.90;;;1.30;;
1378;SDS011;683;48.738;9.226;2023-09-19T15:07:45;1.97;;;1.27;;
1378;SDS011;683;48.738;9.226;2023-09-19T15:10:13;2.70;;;1.73;;
1378;SDS011;683;48.738;9.226;2023-09-19T15:12:41;1.80;;;1.30;;
1378;SDS011;683;48.738;9.226;2023-09-19T15:15:09;3.23;;;1.50;;
1378;SDS011;683;48.738;9.226;2023-09-19T16:11:58;1.10;;;1.00;;
1378;SDS011;683;48.738;9.226;2023-09-19T16:14:25;1.63;;;1.17;;
1378;SDS011;683;48.738;9.226;2023-09-19T16:16:57;1.77;;;1.20;;
1378;SDS011;683;48.738;9.226;2023-09-19T16:19:25;1.83;;;1.60;;
1378;SDS011;683;48.738;9.226;2023-09-19T16:21:52;1.70;;;1.20;;
1378;SDS011;683;48.738;9.226;2023-09-19T16:24:21;1.70;;;1.13;;
1378;SDS011;683;48.738;9.226;2023-09-19T16:26:49;3.37;;;1.63;;
1378;SDS011;683;48.738;9.226;2023-09-19T16:29:17;4.20;;;1.47;;
1378;SDS011;683;48.738;9.226;2023-09-19T16:31:47;2.03;;;1.77;;
1378;SDS011;683;48.738;9.226;2023-09-19T16:34:16;1.43;;;1.20;;
1378;SDS011;683;48.738;9.226;2023-09-19T16:36:43;2.00;;;1.20;;
1378;SDS011;683;48.738;9.226;2023-09-19T16:39:11;1.90;;;1.40;;
1378;SDS011;683;48.738;9.226;2023-09-19T16:41:38;4.10;;;1.37;;
1378;SDS011;683;48.738;9.226;2023-09-19T16:44:07;1.10;;;1.00;;
1378;SDS011;683;48.738;9.226;2023-09-19T16:46:34;2.87;;;1.17;;
1378;SDS011;683;48.738;9.226;2023-09-19T16:49:02;1.10;;;0.90;;
1378;SDS011;683;48.738;9.226;2023-09-19T16:51:31;1.17;;;0.67;;
1378;SDS011;683;48.738;9.226;2023-09-19T16:53:59;1.57;;;1.40;;
1378;SDS011;683;48.738;9.226;2023-09-19T16:56:26;1.60;;;1.17;;
1378;SDS011;683;48.738;9.226;2023-09-19T16:58:55;2.60;;;1.10;;
1378;SDS011;683;48.738;9.226;2023-09-19T17:01:23;1.73;;;1.10;;
1378;SDS011;683;48.738;9.226;2023-09-19T17:03:52;2.30;;;1.17;;
1378;SDS011;683;48.738;9.226;2023-09-19T17:06:22;1.20;;;0.90;;
1378;SDS011;683;48.738;9.226;2023-09-19T17:08:52;1.40;;;1.07;;
1378;SDS011;683;48.738;9.226;2023-09-19T17:11:19;1.27;;;1.17;;
1378;SDS011;683;48.738;9.226;2023-09-19T17:13:49;1.40;;;1.13;;
1378;SDS011;683;48.738;9.226;2023-09-19T17:16:19;1.13;;;1.00;;
1378;SDS011;683;48.738;9.226;2023-09-19T17:18:49;1.43;;;1.30;;
1378;SDS011;683;48.738;9.226;2023-09-19T17:21:18;2.03;;;1.43;;
1378;SDS011;683;48.738;9.226;2023-09-19T17:23:45;2.00;;;1.80;;
1378;SDS011;683;48.738;9.226;2023-09-19T17:26:15;2.80;;;2.10;;
1378;SDS011;683;48.738;9.226;2023-09-19T17:28:43;2.67;;;1.60;;
1378;SDS011;683;48.738;9.226;2023-09-19T17:31:12;2.00;;;1.80;;
1378;SDS011;683;48.738;9.226;2023-09-19T17:33:41;2.40;;;1.80;;
1378;SDS011;683;48.738;9.226;2023-09-19T17:36:09;1.27;;;1.10;;
1378;SDS011;683;48.738;9.226;2023-09-19T17:38:39;1.33;;;1.23;;
1378;SDS011;683;48.738;9.226;2023-09-19T17:41:07;1.50;;;1.30;;
1378;SDS011;683;48.738;9.226;2023-09-19T17:43:37;1.30;;;1.07;;
1378;SDS011;683;48.738;9.226;2023-09-19T17:46:05;3.00;;;1.80;;
1378;SDS011;683;48.738;9.226;2023-09-19T17:48:37;2.20;;;1.57;;
1378;SDS011;683;48.738;9.226;2023-09-19T17:51:06;1.47;;;1.37;;
1378;SDS011;683;48.738;9.226;2023-09-19T17:53:34;1.60;;;1.50;;
1378;SDS011;683;48.738;9.226;2023-09-19T17:56:02;2.20;;;1.50;;
1378;SDS011;683;48.738;9.226;2023-09-19T17:58:30;3.13;;;1.40;;
1378;SDS011;683;48.738;9.226;2023-09-19T18:01:07;2.40;;;2.20;;
1378;SDS011;683;48.738;9.226;2023-09-19T18:03:36;1.80;;;1.70;;
1378;SDS011;683;48.738;9.226;2023-09-19T18:06:04;2.80;;;2.10;;
1378;SDS011;683;48.738;9.226;2023-09-19T18:08:31;2.00;;;1.80;;
1378;SDS011;683;48.738;9.226;2023-09-19T18:10:59;2.50;;;2.13;;
1378;SDS011;683;48.738;9.226;2023-09-19T18:13:27;2.60;;;1.90;;
1378;SDS011;683;48.738;9.226;2023-09-19T18:15:54;3.00;;;2.03;;
1378;SDS011;683;48.738;9.226;2023-09-19T18:18:24;2.80;;;2.50;;
1378;SDS011;683;48.738;9.226;2023-09-19T18:20:52;2.90;;;1.83;;
1378;SDS011;683;48.738;9.226;2023-09-19T18:23:19;2.17;;;1.97;;
1378;SDS011;683;48.738;9.226;2023-09-19T18:25:47;2.83;;;1.47;;
1378;SDS011;683;48.738;9.226;2023-09-19T18:28:14;1.90;;;1.70;;
1378;SDS011;683;48.738;9.226;2023-09-19T18:30:42;3.27;;;1.77;;
1378;SDS011;683;48.738;9.226;2023-09-19T18:33:10;3.77;;;2.20;;
1378;SDS011;683;48.738;9.226;2023-09-19T18:35:39;1.80;;;1.67;;
1378;SDS011;683;48.738;9.226;2023-09-19T18:38:06;1.80;;;1.60;;
1378;SDS011;683;48.738;9.226;2023-09-19T18:40:34;2.10;;;1.90;;
1378;SDS011;683;48.738;9.226;2023-09-19T18:43:02;1.87;;;1.67;;
1378;SDS011;683;48.738;9.226;2023-09-19T18:45:30;1.33;;;1.23;;
1378;SDS011;683;48.738;9.226;2023-09-19T18:47:58;2.70;;;1.80;;
1378;SDS011;683;48.738;9.226;2023-09-19T18:50:27;2.30;;;1.50;;
1378;SDS011;683;48.738;9.226;2023-09-19T18:52:55;2.33;;;1.70;;
1378;SDS011;683;48.738;9.226;2023-09-19T18:55:23;1.90;;;1.53;;
1378;SDS011;683;48.738;9.226;2023-09-19T18:57:51;4.53;;;2.70;;
1378;SDS011;683;48.738;9.226;2023-09-19T19:00:19;2.40;;;2.07;;
1378;SDS011;683;48.738;9.226;2023-09-19T19:02:51;2.33;;;2.13;;
1378;SDS011;683;48.738;9.226;2023-09-19T19:05:19;3.40;;;2.93;;
1378;SDS011;683;48.738;9.226;2023-09-19T19:07:47;5.60;;;2.90;;
1378;SDS011;683;48.738;9.226;2023-09-19T19:10:16;3.00;;;2.20;;
1378;SDS011;683;48.738;9.226;2023-09-19T19:12:45;2.90;;;1.93;;
1378;SDS011;683;48.738;9.226;2023-09-19T19:15:12;3.17;;;2.87;;
1378;SDS011;683;48.738;9.226;2023-09-19T19:17:41;2.90;;;2.37;;
1378;SDS011;683;48.738;9.226;2023-09-19T19:20:09;3.10;;;1.97;;
1378;SDS011;683;48.738;9.226;2023-09-19T19:22:37;3.90;;;3.00;;
1378;SDS011;683;48.738;9.226;2023-09-19T19:25:06;2.50;;;2.30;;
1378;SDS011;683;48.738;9.226;2023-09-19T19:27:36;3.30;;;2.20;;
1378;SDS011;683;48.738;9.226;2023-09-19T19:30:04;2.30;;;2.10;;
1378;SDS011;683;48.738;9.226;2023-09-19T19:32:33;2.17;;;1.97;;
1378;SDS011;683;48.738;9.226;2023-09-19T19:35:01;2.63;;;2.33;;
1378;SDS011;683;48.738;9.226;2023-09-19T19:37:30;2.10;;;1.90;;
1378;SDS011;683;48.738;9.226;2023-09-19T19:39:58;3.27;;;1.90;;
1378;SDS011;683;48.738;9.226;2023-09-19T19:42:26;1.90;;;1.80;;
1378;SDS011;683;48.738;9.226;2023-09-19T19:44:55;2.10;;;1.90;;
1378;SDS011;683;48.738;9.226;2023-09-19T19:47:22;2.30;;;2.10;;
1378;SDS011;683;48.738;9.226;2023-09-19T19:49:52;2.23;;;2.03;;
1378;SDS011;683;48.738;9.226;2023-09-19T19:52:19;3.07;;;2.17;;
1378;SDS011;683;48.738;9.226;2023-09-19T19:54:47;1.83;;;1.73;;
1378;SDS011;683;48.738;9.226;2023-09-19T19:57:15;2.07;;;1.87;;
1378;SDS011;683;48.738;9.226;2023-09-19T19:59:44;2.70;;;1.93;;
1378;SDS011;683;48.738;9.226;2023-09-19T20:02:13;2.37;;;2.17;;
1378;SDS011;683;48.738;9.226;2023-09-19T20:04:40;3.23;;;2.63;;
1378;SDS011;683;48.738;9.226;2023-09-19T20:07:08;2.90;;;2.17;;
1378;SDS011;683;48.738;9.226;2023-09-19T20:09:36;2.27;;;1.97;;
1378;SDS011;683;48.738;9.226;2023-09-19T20:12:04;3.00;;;2.30;;
1378;SDS011;683;48.738;9.226;2023-09-19T20:14:32;2.93;;;2.67;;
1378;SDS011;683;48.738;9.226;2023-09-19T20:17:00;3.80;;;2.00;;
1378;SDS011;683;48.738;9.226;2023-09-19T20:19:29;3.40;;;2.43;;
1378;SDS011;683;48.738;9.226;2023-09-19T20:21:59;3.10;;;2.33;;
1378;SDS011;683;48.738;9.226;2023-09-19T20:24:27;2.53;;;2.33;;
1378;SDS011;683;48.738;9.226;2023-09-19T20:26:55;2.60;;;1.97;;
1378;SDS011;683;48.738;9.226;2023-09-19T20:29:26;2.90;;;2.10;;
1378;SDS011;683;48.738;9.226;2023-09-19T20:31:54;2.70;;;2.20;;
1378;SDS011;683;48.738;9.226;2023-09-19T20:34:21;2.80;;;2.60;;
1378;SDS011;683;48.738;9.226;2023-09-19T20:36:52;4.30;;;2.73;;
1378;SDS011;683;48.738;9.226;2023-09-19T20:39:20;2.73;;;2.33;;
1378;SDS011;683;48.738;9.226;2023-09-19T20:41:48;3.20;;;2.90;;
1378;SDS011;683;48.738;9.226;2023-09-19T20:44:16;2.33;;;2.03;;
1378;SDS011;683;48.738;9.226;2023-09-19T20:46:44;2.30;;;2.10;;
1378;SDS011;683;48.738;9.226;2023-09-19T20:49:11;1.80;;;1.70;;
1378;SDS011;683;48.738;9.226;2023-09-19T20:51:39;2.50;;;2.30;;
1378;SDS011;683;48.738;9.226;2023-09-19T20:54:08;2.33;;;2.13;;
1378;SDS011;683;48.738;9.226;2023-09-19T20:56:38;2.70;;;2.10;;
1378;SDS011;683;48.738;9.226;2023-09-19T20:59:05;3.53;;;1.97;;
1378;SDS011;683;48.738;9.226;2023-09-19T21:01:33;3.03;;;2.77;;
